createdAt,value
2023-05-20T00:00:41.929Z,39.66
2023-05-20T00:01:41.911Z,39.63
2023-05-20T00:02:41.230Z,39.65
2023-05-20T00:03:41.169Z,39.62
2023-05-20T00:04:42.309Z,39.63
2023-05-20T00:05:41.399Z,39.62
2023-05-20T00:06:40.964Z,39.66
2023-05-20T00:07:42.009Z,39.65
2023-05-20T00:08:41.776Z,39.63
2023-05-20T00:09:41.324Z,39.69
2023-05-20T00:10:41.097Z,39.64
2023-05-20T00:11:42.240Z,39.68
2023-05-20T00:12:41.246Z,39.68
2023-05-20T00:13:42.253Z,39.65
2023-05-20T00:14:41.220Z,39.65
2023-05-20T00:15:41.240Z,39.71
2023-05-20T00:16:41.316Z,39.69
2023-05-20T00:17:41.336Z,39.69
2023-05-20T00:18:42.399Z,39.73
2023-05-20T00:19:41.425Z,39.73
2023-05-20T00:20:42.419Z,39.73
2023-05-20T00:21:42.433Z,39.69
2023-05-20T00:22:41.429Z,39.71
2023-05-20T00:23:42.428Z,39.70
2023-05-20T00:24:41.451Z,39.65
2023-05-20T00:25:41.495Z,39.71
2023-05-20T00:26:41.618Z,39.70
2023-05-20T00:27:41.486Z,39.73
2023-05-20T00:28:41.498Z,39.71
2023-05-20T00:29:42.521Z,39.74
2023-05-20T00:30:41.681Z,39.73
2023-05-20T00:31:42.652Z,39.69
2023-05-20T00:32:41.621Z,39.73
2023-05-20T00:33:42.528Z,39.71
2023-05-20T00:34:41.759Z,39.73
2023-05-20T00:35:42.722Z,39.76
2023-05-20T00:36:41.695Z,39.71
2023-05-20T00:37:41.470Z,39.71
2023-05-20T00:38:41.596Z,39.68
2023-05-20T00:39:42.446Z,39.76
2023-05-20T00:40:41.443Z,39.73
2023-05-20T00:41:42.429Z,39.67
2023-05-20T00:42:42.452Z,39.71
2023-05-20T00:43:42.565Z,39.72
2023-05-20T00:44:42.442Z,39.75
2023-05-20T00:45:41.459Z,39.71
2023-05-20T00:46:41.429Z,39.71
2023-05-20T00:47:42.450Z,39.70
2023-05-20T00:48:42.510Z,39.70
2023-05-20T00:49:42.565Z,39.71
2023-05-20T00:50:42.393Z,39.71
2023-05-20T00:51:41.397Z,39.69
2023-05-20T00:52:41.391Z,39.74
2023-05-20T00:53:42.381Z,39.72
2023-05-20T00:54:41.382Z,39.69
2023-05-20T00:55:41.432Z,39.70
2023-05-20T00:56:41.398Z,39.76
2023-05-20T00:57:42.398Z,39.75
2023-05-20T00:58:41.396Z,39.72
2023-05-20T00:59:43.486Z,39.73
2023-05-20T01:00:41.396Z,39.74
2023-05-20T01:01:41.432Z,39.72
2023-05-20T01:02:42.373Z,39.74
2023-05-20T01:03:42.645Z,39.77
2023-05-20T01:04:41.584Z,39.73
2023-05-20T01:05:42.364Z,39.74
2023-05-20T01:06:41.345Z,39.74
2023-05-20T01:07:41.351Z,39.73
2023-05-20T01:08:42.470Z,39.75
2023-05-20T01:09:41.533Z,39.75
2023-05-20T01:10:42.485Z,39.72
2023-05-20T01:11:42.475Z,39.77
2023-05-20T01:12:41.446Z,39.75
2023-05-20T01:13:42.438Z,39.78
2023-05-20T01:14:41.431Z,39.73
2023-05-20T01:15:42.426Z,39.76
2023-05-20T01:16:42.453Z,39.78
2023-05-20T01:17:42.274Z,39.76
2023-05-20T01:18:42.495Z,39.75
2023-05-20T01:19:41.428Z,39.70
2023-05-20T01:20:42.208Z,39.74
2023-05-20T01:21:41.450Z,39.73
2023-05-20T01:22:41.192Z,39.71
2023-05-20T01:23:41.197Z,39.76
2023-05-20T01:24:42.341Z,39.79
2023-05-20T01:25:42.169Z,39.78
2023-05-20T01:26:41.173Z,39.78
2023-05-20T01:27:41.261Z,39.79
2023-05-20T01:28:42.298Z,39.76
2023-05-20T01:29:41.326Z,39.81
2023-05-20T01:30:41.384Z,39.76
2023-05-20T01:31:41.411Z,39.78
2023-05-20T01:32:41.199Z,39.77
2023-05-20T01:33:42.174Z,39.79
2023-05-20T01:34:42.102Z,39.78
2023-05-20T01:35:41.267Z,39.77
2023-05-20T01:36:41.210Z,39.80
2023-05-20T01:37:41.161Z,39.79
2023-05-20T01:38:41.109Z,39.78
2023-05-20T01:39:41.057Z,39.80
2023-05-20T01:40:42.121Z,39.80
2023-05-20T01:41:42.237Z,39.82
2023-05-20T01:42:41.175Z,39.80
2023-05-20T01:43:42.074Z,39.79
2023-05-20T01:44:41.174Z,39.79
2023-05-20T01:45:41.023Z,39.77
2023-05-20T01:46:41.159Z,39.79
2023-05-20T01:47:41.071Z,39.77
2023-05-20T01:48:41.114Z,39.74
2023-05-20T01:49:42.147Z,39.77
2023-05-20T01:50:41.156Z,39.75
2023-05-20T01:51:42.188Z,39.77
2023-05-20T01:52:41.171Z,39.77
2023-05-20T01:53:40.955Z,39.77
2023-05-20T01:54:41.958Z,39.77
2023-05-20T01:55:42.059Z,39.79
2023-05-20T01:56:40.942Z,39.81
2023-05-20T01:57:40.947Z,39.76
2023-05-20T01:58:40.932Z,39.80
2023-05-20T01:59:40.935Z,39.79
2023-05-20T02:00:41.965Z,39.82
2023-05-20T02:01:42.013Z,39.79
2023-05-20T02:02:41.228Z,39.80
2023-05-20T02:03:40.904Z,39.83
2023-05-20T02:04:41.964Z,39.82
2023-05-20T02:05:40.880Z,39.81
2023-05-20T02:06:41.021Z,39.82
2023-05-20T02:07:42.121Z,39.82
2023-05-20T02:08:40.850Z,39.85
2023-05-20T02:09:41.979Z,39.80
2023-05-20T02:10:40.861Z,39.83
2023-05-20T02:11:41.015Z,39.83
2023-05-20T02:12:40.885Z,39.80
2023-05-20T02:13:40.846Z,39.83
2023-05-20T02:14:41.812Z,39.81
2023-05-20T02:15:40.799Z,39.81
2023-05-20T02:16:41.924Z,39.84
2023-05-20T02:17:40.846Z,39.83
2023-05-20T02:18:41.886Z,39.81
2023-05-20T02:19:42.055Z,39.81
2023-05-20T02:20:40.796Z,39.81
2023-05-20T02:21:41.872Z,39.84
2023-05-20T02:22:41.951Z,39.86
2023-05-20T02:23:40.836Z,39.80
2023-05-20T02:24:40.847Z,39.83
2023-05-20T02:25:40.860Z,39.85
2023-05-20T02:26:40.980Z,39.80
2023-05-20T02:27:40.902Z,39.87
2023-05-20T02:28:40.925Z,39.83
2023-05-20T02:29:41.927Z,39.86
2023-05-20T02:30:40.975Z,39.83
2023-05-20T02:31:41.971Z,39.88
2023-05-20T02:32:42.071Z,39.84
2023-05-20T02:33:41.029Z,39.85
2023-05-20T02:34:42.275Z,39.82
2023-05-20T02:35:42.050Z,39.80
2023-05-20T02:36:41.090Z,39.85
2023-05-20T02:37:41.090Z,39.85
2023-05-20T02:38:41.088Z,39.82
2023-05-20T02:39:41.207Z,39.82
2023-05-20T02:40:41.354Z,39.83
2023-05-20T02:41:42.209Z,39.86
2023-05-20T02:42:41.187Z,39.90
2023-05-20T02:43:41.248Z,39.92
2023-05-20T02:44:41.286Z,39.86
2023-05-20T02:45:42.843Z,39.86
2023-05-20T02:46:41.304Z,39.82
2023-05-20T02:47:42.421Z,39.84
2023-05-20T02:48:42.353Z,39.89
2023-05-20T02:49:42.378Z,39.84
2023-05-20T02:50:42.412Z,39.86
2023-05-20T02:51:42.437Z,39.88
2023-05-20T02:52:41.472Z,39.86
2023-05-20T02:53:42.504Z,39.85
2023-05-20T02:54:41.536Z,39.83
2023-05-20T02:55:41.664Z,39.86
2023-05-20T02:56:42.845Z,39.86
2023-05-20T02:57:42.635Z,39.90
2023-05-20T02:58:41.856Z,39.87
2023-05-20T02:59:41.653Z,39.85
2023-05-20T03:00:42.704Z,39.87
2023-05-20T03:01:42.830Z,39.85
2023-05-20T03:02:41.823Z,39.83
2023-05-20T03:03:42.822Z,39.88
2023-05-20T03:04:43.057Z,39.86
2023-05-20T03:05:42.866Z,39.85
2023-05-20T03:06:41.877Z,39.86
2023-05-20T03:07:42.902Z,39.86
2023-05-20T03:08:43.126Z,39.83
2023-05-20T03:09:42.036Z,39.88
2023-05-20T03:10:42.138Z,39.88
2023-05-20T03:11:43.240Z,39.85
2023-05-20T03:12:43.282Z,39.79
2023-05-20T03:13:43.309Z,39.88
2023-05-20T03:14:42.198Z,39.91
2023-05-20T03:15:42.401Z,39.89
2023-05-20T03:16:43.209Z,39.92
2023-05-20T03:17:43.263Z,39.87
2023-05-20T03:18:43.353Z,39.92
2023-05-20T03:19:42.249Z,39.89
2023-05-20T03:20:43.292Z,39.88
2023-05-20T03:21:43.338Z,39.87
2023-05-20T03:22:43.346Z,39.93
2023-05-20T03:23:42.512Z,39.89
2023-05-20T03:24:42.450Z,39.89
2023-05-20T03:25:43.468Z,39.91
2023-05-20T03:26:43.585Z,39.90
2023-05-20T03:27:42.508Z,39.89
2023-05-20T03:28:42.737Z,39.90
2023-05-20T03:29:43.588Z,39.92
2023-05-20T03:30:42.651Z,39.89
2023-05-20T03:31:42.752Z,39.90
2023-05-20T03:32:43.847Z,39.90
2023-05-20T03:33:42.940Z,39.90
2023-05-20T03:34:43.904Z,39.93
2023-05-20T03:35:43.802Z,39.90
2023-05-20T03:36:43.907Z,39.93
2023-05-20T03:37:43.079Z,39.91
2023-05-20T03:38:43.878Z,39.91
2023-05-20T03:39:43.923Z,39.94
2023-05-20T03:40:43.993Z,39.93
2023-05-20T03:41:43.069Z,39.92
2023-05-20T03:42:43.047Z,39.94
2023-05-20T03:43:44.184Z,39.93
2023-05-20T03:44:44.089Z,39.90
2023-05-20T03:45:44.343Z,39.85
2023-05-20T03:46:43.386Z,39.92
2023-05-20T03:47:44.347Z,39.91
2023-05-20T03:48:44.442Z,39.90
2023-05-20T03:49:44.532Z,39.94
2023-05-20T03:50:44.602Z,39.92
2023-05-20T03:51:44.351Z,39.93
2023-05-20T03:52:43.391Z,39.93
2023-05-20T03:53:43.478Z,39.96
2023-05-20T03:54:43.586Z,40.00
2023-05-20T03:55:43.522Z,39.93
2023-05-20T03:56:43.862Z,39.95
2023-05-20T03:57:43.672Z,39.95
2023-05-20T03:58:43.744Z,39.92
2023-05-20T03:59:43.651Z,39.92
2023-05-20T04:00:43.685Z,39.97
2023-05-20T04:01:43.837Z,39.97
2023-05-20T04:02:45.081Z,39.97
2023-05-20T04:03:44.933Z,39.96
2023-05-20T04:04:43.983Z,39.90
2023-05-20T04:05:43.908Z,39.95
2023-05-20T04:06:43.935Z,40.02
2023-05-20T04:07:45.042Z,39.97
2023-05-20T04:08:45.100Z,39.94
2023-05-20T04:09:45.264Z,39.96
2023-05-20T04:10:45.472Z,39.96
2023-05-20T04:11:45.266Z,39.92
2023-05-20T04:12:44.375Z,39.93
2023-05-20T04:13:44.223Z,39.98
2023-05-20T04:14:45.286Z,39.95
2023-05-20T04:15:44.617Z,39.97
2023-05-20T04:16:44.553Z,39.95
2023-05-20T04:17:45.427Z,39.96
2023-05-20T04:18:45.467Z,39.97
2023-05-20T04:19:45.474Z,39.98
2023-05-20T04:20:44.577Z,39.95
2023-05-20T04:21:44.558Z,39.95
2023-05-20T04:22:44.751Z,40.00
2023-05-20T04:23:44.638Z,39.93
2023-05-20T04:24:44.768Z,39.92
2023-05-20T04:25:44.848Z,39.97
2023-05-20T04:26:44.893Z,39.94
2023-05-20T04:27:44.882Z,39.99
2023-05-20T04:28:45.113Z,39.92
2023-05-20T04:29:46.143Z,39.94
2023-05-20T04:30:45.978Z,39.95
2023-05-20T04:31:46.240Z,39.97
2023-05-20T04:32:46.050Z,39.92
2023-05-20T04:33:45.088Z,39.94
2023-05-20T04:34:45.102Z,39.96
2023-05-20T04:35:45.129Z,39.97
2023-05-20T04:36:45.387Z,39.99
2023-05-20T04:37:45.242Z,39.92
2023-05-20T04:38:45.370Z,39.94
2023-05-20T04:39:46.356Z,39.92
2023-05-20T04:40:45.432Z,39.97
2023-05-20T04:41:45.400Z,39.96
2023-05-20T04:42:45.585Z,39.96
2023-05-20T04:43:46.708Z,39.92
2023-05-20T04:44:45.694Z,39.97
2023-05-20T04:45:46.747Z,39.92
2023-05-20T04:46:46.751Z,39.95
2023-05-20T04:47:45.730Z,39.91
2023-05-20T04:48:46.723Z,39.95
2023-05-20T04:49:46.758Z,39.97
2023-05-20T04:50:45.808Z,39.92
2023-05-20T04:51:45.931Z,39.95
2023-05-20T04:52:46.901Z,39.95
2023-05-20T04:53:46.348Z,39.94
2023-05-20T04:54:46.349Z,39.94
2023-05-20T04:55:47.096Z,39.96
2023-05-20T04:56:46.289Z,39.92
2023-05-20T04:57:46.324Z,39.92
2023-05-20T04:58:46.179Z,39.91
2023-05-20T04:59:46.344Z,39.95
2023-05-20T05:00:46.424Z,39.93
2023-05-20T05:01:47.319Z,39.93
2023-05-20T05:02:47.519Z,39.95
2023-05-20T05:03:47.455Z,39.92
2023-05-20T05:04:46.501Z,39.94
2023-05-20T05:05:47.893Z,39.92
2023-05-20T05:06:47.580Z,39.89
2023-05-20T05:07:46.775Z,39.91
2023-05-20T05:08:46.617Z,39.94
2023-05-20T05:09:46.761Z,39.95
2023-05-20T05:10:46.695Z,39.91
2023-05-20T05:11:46.744Z,39.93
2023-05-20T05:12:46.813Z,39.92
2023-05-20T05:13:46.861Z,39.91
2023-05-20T05:14:47.914Z,39.92
2023-05-20T05:15:46.958Z,39.91
2023-05-20T05:16:47.157Z,39.91
2023-05-20T05:17:47.036Z,39.95
2023-05-20T05:18:48.063Z,39.93
2023-05-20T05:19:47.082Z,39.92
2023-05-20T05:20:48.138Z,39.91
2023-05-20T05:21:47.179Z,39.97
2023-05-20T05:22:47.232Z,39.92
2023-05-20T05:23:48.264Z,39.97
2023-05-20T05:24:48.503Z,39.96
2023-05-20T05:25:48.353Z,39.88
2023-05-20T05:26:47.606Z,39.93
2023-05-20T05:27:47.558Z,39.92
2023-05-20T05:28:48.738Z,39.91
2023-05-20T05:29:47.667Z,39.95
2023-05-20T05:30:47.771Z,39.96
2023-05-20T05:31:47.895Z,39.92
2023-05-20T05:32:49.011Z,39.91
2023-05-20T05:33:48.776Z,39.92
2023-05-20T05:34:47.732Z,39.92
2023-05-20T05:35:48.775Z,39.88
2023-05-20T05:36:48.831Z,39.92
2023-05-20T05:37:47.865Z,39.90
2023-05-20T05:38:48.916Z,39.91
2023-05-20T05:39:47.980Z,39.89
2023-05-20T05:40:48.045Z,39.89
2023-05-20T05:41:49.139Z,39.95
2023-05-20T05:42:48.164Z,39.89
2023-05-20T05:43:48.277Z,39.89
2023-05-20T05:44:49.957Z,39.92
2023-05-20T05:45:49.396Z,39.89
2023-05-20T05:46:49.498Z,39.93
2023-05-20T05:47:48.336Z,39.86
2023-05-20T05:48:48.356Z,39.90
2023-05-20T05:49:49.507Z,39.91
2023-05-20T05:50:48.429Z,39.90
2023-05-20T05:51:48.574Z,39.84
2023-05-20T05:52:48.673Z,39.90
2023-05-20T05:53:48.765Z,39.84
2023-05-20T05:54:48.604Z,39.85
2023-05-20T05:55:48.758Z,39.82
2023-05-20T05:56:49.757Z,39.90
2023-05-20T05:57:48.874Z,39.85
2023-05-20T05:58:48.878Z,39.91
2023-05-20T05:59:48.829Z,39.89
2023-05-20T06:00:50.160Z,39.90
2023-05-20T06:01:49.049Z,39.90
2023-05-20T06:02:50.284Z,39.87
2023-05-20T06:03:49.124Z,39.90
2023-05-20T06:04:49.230Z,39.89
2023-05-20T06:05:49.112Z,39.86
2023-05-20T06:06:49.142Z,39.83
2023-05-20T06:07:50.239Z,39.84
2023-05-20T06:08:50.310Z,39.86
2023-05-20T06:09:49.360Z,39.81
2023-05-20T06:10:50.466Z,39.83
2023-05-20T06:11:49.415Z,39.89
2023-05-20T06:12:49.517Z,39.84
2023-05-20T06:13:50.447Z,39.86
2023-05-20T06:14:49.579Z,39.80
2023-05-20T06:15:49.752Z,39.83
2023-05-20T06:16:49.646Z,39.86
2023-05-20T06:17:49.670Z,39.85
2023-05-20T06:18:50.891Z,39.81
2023-05-20T06:19:49.789Z,39.81
2023-05-20T06:20:49.927Z,39.81
2023-05-20T06:21:49.829Z,39.83
2023-05-20T06:22:49.833Z,39.83
2023-05-20T06:23:50.872Z,39.81
2023-05-20T06:24:51.027Z,39.79
2023-05-20T06:25:51.211Z,39.80
2023-05-20T06:26:50.986Z,39.81
2023-05-20T06:27:50.012Z,39.80
2023-05-20T06:28:51.258Z,39.78
2023-05-20T06:29:50.298Z,39.81
2023-05-20T06:30:50.134Z,39.80
2023-05-20T06:31:50.142Z,39.79
2023-05-20T06:32:51.443Z,39.76
2023-05-20T06:33:50.497Z,39.77
2023-05-20T06:34:50.282Z,39.79
2023-05-20T06:35:50.966Z,39.81
2023-05-20T06:36:51.363Z,39.78
2023-05-20T06:37:50.401Z,39.77
2023-05-20T06:38:50.425Z,39.76
2023-05-20T06:39:50.683Z,39.75
2023-05-20T06:40:50.727Z,39.77
2023-05-20T06:41:50.600Z,39.73
2023-05-20T06:42:50.515Z,39.75
2023-05-20T06:43:53.236Z,39.71
2023-05-20T06:44:50.579Z,39.72
2023-05-20T06:45:50.635Z,39.73
2023-05-20T06:46:51.664Z,39.72
2023-05-20T06:47:50.679Z,39.68
2023-05-20T06:48:51.688Z,39.67
2023-05-20T06:49:50.513Z,39.71
2023-05-20T06:50:51.556Z,39.71
2023-05-20T06:51:51.504Z,39.73
2023-05-20T06:52:50.704Z,39.70
2023-05-20T06:53:50.551Z,39.70
2023-05-20T06:54:50.504Z,39.70
2023-05-20T06:55:50.736Z,39.66
2023-05-20T06:56:50.591Z,39.63
2023-05-20T06:57:51.597Z,39.67
2023-05-20T06:58:50.451Z,39.66
2023-05-20T06:59:51.443Z,39.69
2023-05-20T07:00:50.522Z,39.64
2023-05-20T07:01:50.549Z,39.64
2023-05-20T07:02:50.478Z,39.64
2023-05-20T07:03:50.517Z,39.64
2023-05-20T07:04:50.583Z,39.65
2023-05-20T07:05:50.383Z,39.66
2023-05-20T07:06:51.401Z,39.64
2023-05-20T07:07:51.370Z,39.60
2023-05-20T07:08:51.448Z,39.61
2023-05-20T07:09:50.507Z,39.57
2023-05-20T07:10:50.346Z,39.55
2023-05-20T07:11:51.520Z,39.61
2023-05-20T07:12:50.346Z,39.62
2023-05-20T07:13:51.314Z,39.58
2023-05-20T07:14:51.425Z,39.55
2023-05-20T07:15:51.322Z,39.60
2023-05-20T07:16:50.331Z,39.58
2023-05-20T07:17:51.307Z,39.55
2023-05-20T07:18:50.313Z,39.54
2023-05-20T07:19:51.377Z,39.53
2023-05-20T07:20:50.276Z,39.57
2023-05-20T07:21:51.290Z,39.54
2023-05-20T07:22:50.290Z,39.49
2023-05-20T07:23:50.486Z,39.49
2023-05-20T07:24:50.247Z,39.51
2023-05-20T07:25:51.437Z,39.51
2023-05-20T07:26:50.300Z,39.49
2023-05-20T07:27:50.259Z,39.48
2023-05-20T07:28:51.208Z,39.53
2023-05-20T07:29:50.319Z,39.46
2023-05-20T07:30:52.820Z,39.52
2023-05-20T07:31:50.950Z,39.47
2023-05-20T07:32:51.324Z,39.48
2023-05-20T07:33:50.319Z,39.46
2023-05-20T07:34:50.211Z,39.51
2023-05-20T07:35:50.258Z,39.47
2023-05-20T07:36:50.194Z,39.46
2023-05-20T07:37:51.180Z,39.43
2023-05-20T07:39:01.693Z,39.43
2023-05-20T07:39:51.240Z,39.41
2023-05-20T07:40:50.323Z,39.45
2023-05-20T07:41:50.160Z,39.42
2023-05-20T07:42:50.140Z,39.40
2023-05-20T07:43:50.121Z,39.43
2023-05-20T07:44:51.126Z,39.39
2023-05-20T07:45:50.309Z,39.36
2023-05-20T07:46:50.290Z,39.38
2023-05-20T07:47:50.189Z,39.41
2023-05-20T07:48:51.114Z,39.38
2023-05-20T07:49:50.189Z,39.36
2023-05-20T07:50:50.305Z,39.36
2023-05-20T07:51:51.311Z,39.36
2023-05-20T07:52:56.345Z,39.34
2023-05-20T07:53:51.304Z,39.41
2023-05-20T07:54:51.281Z,39.36
2023-05-20T07:55:50.208Z,39.32
2023-05-20T07:56:50.245Z,39.33
2023-05-20T07:57:51.030Z,39.35
2023-05-20T07:58:51.009Z,39.29
2023-05-20T07:59:51.010Z,39.29
2023-05-20T08:00:51.010Z,39.27
2023-05-20T08:01:51.062Z,39.28
2023-05-20T08:02:51.088Z,39.27
2023-05-20T08:03:50.160Z,39.28
2023-05-20T08:04:50.984Z,39.25
2023-05-20T08:05:50.001Z,39.22
2023-05-20T08:06:51.038Z,39.25
2023-05-20T08:07:50.958Z,39.27
2023-05-20T08:08:51.069Z,39.25
2023-05-20T08:09:50.984Z,39.21
2023-05-20T08:10:49.983Z,39.20
2023-05-20T08:11:51.033Z,39.19
2023-05-20T08:12:50.906Z,39.16
2023-05-20T08:13:50.022Z,39.22
2023-05-20T08:14:49.890Z,39.24
2023-05-20T08:15:50.030Z,39.19
2023-05-20T08:16:53.865Z,39.20
2023-05-20T08:17:50.990Z,39.15
2023-05-20T08:18:49.880Z,39.16
2023-05-20T08:19:49.853Z,39.16
2023-05-20T08:20:50.861Z,39.15
2023-05-20T08:21:50.950Z,39.19
2023-05-20T08:22:50.887Z,39.14
2023-05-20T08:23:50.812Z,39.15
2023-05-20T08:24:49.811Z,39.19
2023-05-20T08:25:50.980Z,39.12
2023-05-20T08:26:50.906Z,39.11
2023-05-20T08:27:50.793Z,39.11
2023-05-20T08:28:49.989Z,39.14
2023-05-20T08:29:49.798Z,39.09
2023-05-20T08:30:49.785Z,39.10
2023-05-20T08:31:49.852Z,39.14
2023-05-20T08:32:50.918Z,39.12
2023-05-20T08:33:50.903Z,39.12
2023-05-20T08:34:49.744Z,39.10
2023-05-20T08:35:50.844Z,39.12
2023-05-20T08:36:50.850Z,39.08
2023-05-20T08:37:49.924Z,39.07
2023-05-20T08:41:46.979Z,39.13
2023-05-20T08:42:48.231Z,39.12
2023-05-20T08:43:47.020Z,39.12
2023-05-20T08:44:47.214Z,39.10
2023-05-20T08:45:48.098Z,39.10
2023-05-20T08:46:47.203Z,39.12
2023-05-20T08:47:48.280Z,39.09
2023-05-20T08:48:47.383Z,39.03
2023-05-20T08:49:48.139Z,39.10
2023-05-20T08:50:48.173Z,39.08
2023-05-20T08:51:48.273Z,39.07
2023-05-20T08:54:06.144Z,39.07
2023-05-20T08:55:06.150Z,39.04
2023-05-20T08:56:06.120Z,39.05
2023-05-20T08:57:07.137Z,39.02
2023-05-20T08:58:07.182Z,39.01
2023-05-20T08:59:07.367Z,39.02
2023-05-20T09:00:06.247Z,38.98
2023-05-20T09:01:06.323Z,38.99
2023-05-20T09:02:07.163Z,38.95
2023-05-20T09:03:06.184Z,38.95
2023-05-20T09:04:07.069Z,38.95
2023-05-20T09:05:07.097Z,38.96
2023-05-20T09:06:07.070Z,38.93
2023-05-20T09:07:06.084Z,38.93
2023-05-20T09:08:07.072Z,38.93
2023-05-20T09:09:07.193Z,38.93
2023-05-20T09:10:07.205Z,38.96
2023-05-20T09:11:07.240Z,38.93
2023-05-20T09:12:06.036Z,38.93
2023-05-20T09:13:06.137Z,38.96
2023-05-20T09:14:07.213Z,38.90
2023-05-20T09:15:06.999Z,38.88
2023-05-20T09:16:06.295Z,38.88
2023-05-20T09:17:06.169Z,38.88
2023-05-20T09:18:06.071Z,38.86
2023-05-20T09:19:06.020Z,38.89
2023-05-20T09:20:07.104Z,38.86
2023-05-20T09:21:07.095Z,38.84
2023-05-20T09:22:06.165Z,38.84
2023-05-20T09:23:07.206Z,38.82
2023-05-20T09:24:06.320Z,38.85
2023-05-20T09:25:06.279Z,38.78
2023-05-20T09:26:06.187Z,38.82
2023-05-20T09:27:07.455Z,38.80
2023-05-20T09:28:07.607Z,38.80
2023-05-20T09:29:07.442Z,38.78
2023-05-20T09:30:07.551Z,38.78
2023-05-20T09:31:07.608Z,38.77
2023-05-20T09:32:06.750Z,38.74
2023-05-20T09:33:06.841Z,38.72
2023-05-20T09:34:06.888Z,38.73
2023-05-20T09:35:06.758Z,38.72
2023-05-20T09:36:07.868Z,38.69
2023-05-20T09:37:07.022Z,38.72
2023-05-20T09:38:06.938Z,38.64
2023-05-20T09:39:07.966Z,38.68
2023-05-20T09:40:08.040Z,38.67
2023-05-20T09:41:07.287Z,38.68
2023-05-20T09:42:08.177Z,38.63
2023-05-20T09:43:07.306Z,38.67
2023-05-20T09:44:08.356Z,38.62
2023-05-20T09:45:08.420Z,38.61
2023-05-20T09:46:07.658Z,38.62
2023-05-20T09:47:08.841Z,38.60
2023-05-20T09:48:07.576Z,38.58
2023-05-20T09:49:07.730Z,38.61
2023-05-20T09:50:07.882Z,38.59
2023-05-20T09:51:08.089Z,38.64
2023-05-20T09:52:07.793Z,38.59
2023-05-20T09:53:07.843Z,38.57
2023-05-20T09:54:08.929Z,38.56
2023-05-20T09:55:07.966Z,38.54
2023-05-20T09:56:09.007Z,38.53
2023-05-20T09:57:08.084Z,38.51
2023-05-20T09:58:09.391Z,38.58
2023-05-20T09:59:09.201Z,38.52
2023-05-20T10:00:08.271Z,38.53
2023-05-20T10:01:08.384Z,38.49
2023-05-20T10:02:09.458Z,38.54
2023-05-20T10:03:08.573Z,38.53
2023-05-20T10:04:08.728Z,38.53
2023-05-20T10:05:09.589Z,38.49
2023-05-20T10:06:09.603Z,38.50
2023-05-20T10:07:09.720Z,38.47
2023-05-20T10:08:09.765Z,38.47
2023-05-20T10:09:09.790Z,38.40
2023-05-20T10:10:08.815Z,38.44
2023-05-20T10:11:09.909Z,38.48
2023-05-20T10:12:09.212Z,38.42
2023-05-20T10:13:09.013Z,38.43
2023-05-20T10:14:09.052Z,38.45
2023-05-20T10:15:09.093Z,38.42
2023-05-20T10:16:10.437Z,38.43
2023-05-20T10:17:10.250Z,38.38
2023-05-20T10:18:10.416Z,38.40
2023-05-20T10:19:09.342Z,38.42
2023-05-20T10:20:10.334Z,38.39
2023-05-20T10:21:09.378Z,38.44
2023-05-20T10:22:10.443Z,38.42
2023-05-20T10:23:09.498Z,38.41
2023-05-20T10:24:10.640Z,38.39
2023-05-20T10:25:10.730Z,38.34
2023-05-20T10:26:09.807Z,38.36
2023-05-20T10:27:09.712Z,38.38
2023-05-20T10:28:09.741Z,38.34
2023-05-20T10:29:11.643Z,38.38
2023-05-20T10:30:10.844Z,38.34
2023-05-20T10:31:10.917Z,38.33
2023-05-20T10:32:11.050Z,38.38
2023-05-20T10:33:11.205Z,38.34
2023-05-20T10:34:11.078Z,38.33
2023-05-20T10:35:10.182Z,38.36
2023-05-20T10:36:11.170Z,38.36
2023-05-20T10:37:11.253Z,38.34
2023-05-20T10:38:10.409Z,38.36
2023-05-20T10:39:11.331Z,38.32
2023-05-20T10:40:11.386Z,38.33
2023-05-20T10:41:10.425Z,38.35
2023-05-20T10:42:10.525Z,38.33
2023-05-20T10:43:10.532Z,38.30
2023-05-20T10:44:10.606Z,38.36
2023-05-20T10:45:10.677Z,38.32
2023-05-20T10:46:26.234Z,38.33
2023-05-20T10:48:10.707Z,38.34
2023-05-20T10:49:10.813Z,38.30
2023-05-20T10:50:10.683Z,38.30
2023-05-20T10:51:11.664Z,38.32
2023-05-20T10:52:11.749Z,38.34
2023-05-20T10:53:21.706Z,38.35
2023-05-20T10:54:11.828Z,38.29
2023-05-20T10:55:11.746Z,38.30
2023-05-20T10:56:10.819Z,38.34
2023-05-20T10:57:10.847Z,38.32
2023-05-20T10:58:10.707Z,38.33
2023-05-20T10:59:11.612Z,38.30
2023-05-20T11:00:10.624Z,38.29
2023-05-20T11:01:11.636Z,38.34
2023-05-20T11:02:11.605Z,38.31
2023-05-20T11:03:10.726Z,38.29
2023-05-20T11:04:10.732Z,38.28
2023-05-20T11:05:11.578Z,38.27
2023-05-20T11:06:11.588Z,38.29
2023-05-20T11:07:10.555Z,38.29
2023-05-20T11:08:27.179Z,38.28
2023-05-20T11:09:11.606Z,38.33
2023-05-20T11:10:10.552Z,38.30
2023-05-20T11:11:11.713Z,38.33
2023-05-20T11:12:10.512Z,38.33
2023-05-20T11:13:11.676Z,38.27
2023-05-20T11:14:11.503Z,38.32
2023-05-20T11:15:11.662Z,38.32
2023-05-20T11:16:10.575Z,38.33
2023-05-20T11:17:11.668Z,38.28
2023-05-20T11:18:10.688Z,38.22
2023-05-20T11:19:10.499Z,38.26
2023-05-20T11:20:11.476Z,38.25
2023-05-20T11:21:10.492Z,38.29
2023-05-20T11:22:11.519Z,38.26
2023-05-20T11:23:10.465Z,38.26
2023-05-20T11:24:11.455Z,38.29
2023-05-20T11:25:11.610Z,38.27
2023-05-20T11:26:11.428Z,38.32
2023-05-20T11:27:11.471Z,38.27
2023-05-20T11:28:11.555Z,38.28
2023-05-20T11:29:11.410Z,38.27
2023-05-20T11:30:11.444Z,38.29
2023-05-20T11:31:11.393Z,38.27
2023-05-20T11:32:10.468Z,38.27
2023-05-20T11:33:10.516Z,38.26
2023-05-20T11:34:10.380Z,38.30
2023-05-20T11:35:11.607Z,38.30
2023-05-20T11:36:23.820Z,38.26
2023-05-20T11:37:11.470Z,38.26
2023-05-20T11:38:10.629Z,38.27
2023-05-20T11:39:10.342Z,38.29
2023-05-20T11:40:11.477Z,38.30
2023-05-20T11:41:11.432Z,38.26
2023-05-20T11:42:11.340Z,38.28
2023-05-20T11:43:11.407Z,38.25
2023-05-20T11:44:11.490Z,38.27
2023-05-20T11:45:10.311Z,38.26
2023-05-20T11:46:11.337Z,38.20
2023-05-20T11:47:10.482Z,38.25
2023-05-20T11:48:10.581Z,38.23
2023-05-20T11:49:11.337Z,38.23
2023-05-20T11:50:11.444Z,38.20
2023-05-20T11:51:11.499Z,38.22
2023-05-20T11:52:10.338Z,38.19
2023-05-20T11:53:10.293Z,38.14
2023-05-20T11:54:11.346Z,38.16
2023-05-20T11:55:11.238Z,38.16
2023-05-20T11:56:11.235Z,38.12
2023-05-20T11:57:11.244Z,38.12
2023-05-20T11:58:11.366Z,38.06
2023-05-20T11:59:11.253Z,38.10
2023-05-20T12:00:11.386Z,38.12
2023-05-20T12:01:21.616Z,38.07
2023-05-20T12:02:11.232Z,38.05
2023-05-20T12:03:10.592Z,38.00
2023-05-20T12:04:10.389Z,37.99
2023-05-20T12:05:11.246Z,37.99
2023-05-20T12:06:10.223Z,37.93
2023-05-20T12:07:11.147Z,37.98
2023-05-20T12:08:10.446Z,37.96
2023-05-20T12:09:10.139Z,37.91
2023-05-20T12:10:10.289Z,37.92
2023-05-20T12:11:11.336Z,37.92
2023-05-20T12:12:10.109Z,37.94
2023-05-20T12:13:11.134Z,37.91
2023-05-20T12:14:10.356Z,37.90
2023-05-20T12:15:10.116Z,37.85
2023-05-20T12:16:10.358Z,37.88
2023-05-20T12:17:10.124Z,37.89
2023-05-20T12:18:11.210Z,37.81
2023-05-20T12:19:10.220Z,37.88
2023-05-20T12:20:10.188Z,37.79
2023-05-20T12:21:11.064Z,37.79
2023-05-20T12:22:10.285Z,37.80
2023-05-20T12:23:10.194Z,37.78
2023-05-20T12:24:11.051Z,37.80
2023-05-20T12:25:11.027Z,37.74
2023-05-20T12:26:11.052Z,37.79
2023-05-20T12:27:10.090Z,37.71
2023-05-20T12:28:10.107Z,37.76
2023-05-20T12:29:10.050Z,37.72
2023-05-20T12:30:10.020Z,37.73
2023-05-20T12:31:10.159Z,37.70
2023-05-20T12:32:10.264Z,37.72
2023-05-20T12:33:10.966Z,37.71
2023-05-20T12:34:11.026Z,37.68
2023-05-20T12:35:09.960Z,37.68
2023-05-20T12:36:10.947Z,37.67
2023-05-20T12:37:10.960Z,37.74
2023-05-20T12:38:11.067Z,37.71
2023-05-20T12:39:10.048Z,37.68
2023-05-20T12:40:09.939Z,37.66
2023-05-20T12:41:10.918Z,37.62
2023-05-20T12:42:11.018Z,37.61
2023-05-20T12:43:10.904Z,37.62
2023-05-20T12:44:10.913Z,37.60
2023-05-20T12:45:09.889Z,37.62
2023-05-20T12:46:09.885Z,37.64
2023-05-20T12:47:10.120Z,37.65
2023-05-20T12:48:10.892Z,37.63
2023-05-20T12:49:10.911Z,37.62
2023-05-20T12:50:09.889Z,37.59
2023-05-20T12:51:10.909Z,37.60
2023-05-20T12:52:18.975Z,37.59
2023-05-20T12:53:10.951Z,37.60
2023-05-20T12:54:09.834Z,37.63
2023-05-20T12:55:09.915Z,37.64
2023-05-20T12:56:09.917Z,37.55
2023-05-20T12:57:10.814Z,37.60
2023-05-20T12:58:10.845Z,37.60